Time;durP1;ratioP1;P1;durP2;ratioP2;P2;SDS_P1;SDS_P2;PMS_P1;PMS_P2;Temp;Humidity;BMP_temperature;BMP_pressure;BME280_temperature;BME280_humidity;BME280_pressure;Samples;Min_cycle;Max_cycle;Signal;HPM_P1;HPM_P2
2022/09/25 00:00:44;;;;;;;2.20;2.20;;;20.40;63.70;;;;;;5053847;28;43787;-77
2022/09/25 00:03:13;;;;;;;2.40;2.40;;;20.40;63.70;;;;;;5054632;28;43439;-75
2022/09/25 00:05:42;;;;;;;2.10;2.10;;;20.40;63.50;;;;;;5059735;28;43413;-74
2022/09/25 00:08:10;;;;;;;2.00;2.00;;;20.40;63.50;;;;;;5052203;28;43473;-76
2022/09/25 00:10:40;;;;;;;2.17;2.17;;;20.40;63.60;;;;;;5056077;28;43867;-73
2022/09/25 00:13:08;;;;;;;2.27;2.27;;;20.40;64.00;;;;;;5059863;28;43403;-75
2022/09/25 00:15:37;;;;;;;2.10;2.10;;;20.40;64.00;;;;;;5053619;28;43435;-73
2022/09/25 00:18:05;;;;;;;2.10;2.10;;;20.50;63.70;;;;;;5053386;28;43472;-74
2022/09/25 00:20:32;;;;;;;2.37;2.37;;;20.60;63.30;;;;;;5056619;28;44110;-77
2022/09/25 00:23:01;;;;;;;1.90;1.90;;;20.70;62.90;;;;;;5029514;28;44380;-74
2022/09/25 00:25:29;;;;;;;2.20;2.20;;;20.80;62.80;;;;;;5053409;28;43748;-76
2022/09/25 00:27:56;;;;;;;2.30;2.30;;;20.70;62.60;;;;;;5048978;28;43456;-75
2022/09/25 00:30:24;;;;;;;2.27;2.23;;;20.70;62.70;;;;;;5047480;28;44013;-75
2022/09/25 00:32:53;;;;;;;2.43;2.40;;;20.60;62.90;;;;;;5049985;28;43921;-72
2022/09/25 00:35:21;;;;;;;2.00;2.00;;;20.50;63.20;;;;;;5056095;28;43499;-76
2022/09/25 00:37:49;;;;;;;2.13;2.13;;;20.50;63.50;;;;;;5048374;28;43464;-73
2022/09/25 00:40:18;;;;;;;2.30;2.30;;;20.50;63.40;;;;;;5052402;28;44579;-74
2022/09/25 00:42:46;;;;;;;2.20;2.20;;;20.50;63.40;;;;;;5046958;28;43349;-74
2022/09/25 00:45:17;;;;;;;2.27;2.27;;;20.40;63.30;;;;;;5046986;28;43512;-75
2022/09/25 00:48:04;;;;;;;1.90;1.90;;;20.40;63.60;;;;;;5050825;28;43454;-75
2022/09/25 00:50:33;;;;;;;2.33;2.33;;;20.40;64.60;;;;;;5033127;28;45430;-76
2022/09/25 00:53:05;;;;;;;2.13;2.13;;;20.50;63.70;;;;;;5050232;28;44054;-76
2022/09/25 00:55:34;;;;;;;2.23;2.23;;;20.50;63.30;;;;;;5048871;28;43410;-77
2022/09/25 00:58:02;;;;;;;2.27;2.27;;;20.60;63.30;;;;;;5055340;28;43477;-72
2022/09/25 01:00:30;;;;;;;2.30;2.30;;;20.50;63.10;;;;;;5062551;28;45349;-74
2022/09/25 01:02:58;;;;;;;1.93;1.93;;;20.50;63.40;;;;;;5055199;28;43632;-74
2022/09/25 01:05:29;;;;;;;2.00;2.00;;;20.50;63.40;;;;;;5047347;28;43410;-73
2022/09/25 01:07:57;;;;;;;2.10;2.10;;;20.50;63.30;;;;;;5053647;28;43891;-75
2022/09/25 01:10:25;;;;;;;2.00;2.00;;;20.50;63.30;;;;;;5055638;28;43877;-74
2022/09/25 01:12:54;;;;;;;2.33;2.30;;;20.50;63.50;;;;;;5047660;28;43913;-75
2022/09/25 01:15:23;;;;;;;2.23;2.23;;;20.40;63.70;;;;;;5052579;28;43440;-75
2022/09/25 01:17:58;;;;;;;2.20;2.13;;;20.40;63.70;;;;;;5054283;28;43719;-73
2022/09/25 01:20:38;;;;;;;2.30;2.30;;;20.40;63.60;;;;;;5052796;28;43937;-73
2022/09/25 01:23:11;;;;;;;2.23;2.13;;;20.40;63.60;;;;;;5047433;28;43431;-75
2022/09/25 01:25:44;;;;;;;2.37;2.37;;;20.40;63.70;;;;;;5060183;28;43517;-77
2022/09/25 01:28:20;;;;;;;2.10;2.10;;;20.30;63.90;;;;;;5051740;28;44025;-74
2022/09/25 01:30:50;;;;;;;2.10;2.10;;;20.40;64.00;;;;;;5057621;28;44478;-72
2022/09/25 01:33:21;;;;;;;2.07;2.07;;;20.50;63.80;;;;;;5048901;28;43750;-76
2022/09/25 01:35:49;;;;;;;2.20;2.20;;;20.60;63.50;;;;;;5047890;28;43480;-74
2022/09/25 01:38:24;;;;;;;2.00;2.00;;;20.70;63.00;;;;;;5055414;28;43445;-76
2022/09/25 01:40:56;;;;;;;2.33;2.33;;;20.70;62.70;;;;;;5033243;28;45630;-76
2022/09/25 01:43:26;;;;;;;2.03;2.03;;;20.70;62.50;;;;;;5048180;28;43477;-73
2022/09/25 01:45:57;;;;;;;2.17;2.13;;;20.60;62.70;;;;;;5046318;28;43376;-76
2022/09/25 01:48:25;;;;;;;2.50;2.40;;;20.60;62.90;;;;;;5049824;28;43434;-74
2022/09/25 01:50:56;;;;;;;2.40;2.40;;;20.50;63.20;;;;;;5043942;28;45743;-74
2022/09/25 01:53:26;;;;;;;2.30;2.30;;;20.50;63.50;;;;;;5049863;28;43538;-73
2022/09/25 01:55:56;;;;;;;2.10;2.10;;;20.50;63.40;;;;;;5049898;28;43945;-75
2022/09/25 01:58:26;;;;;;;2.17;2.17;;;20.50;63.40;;;;;;5060527;28;43449;-76
2022/09/25 02:00:56;;;;;;;2.30;2.30;;;20.40;63.40;;;;;;5049372;28;43664;-78
2022/09/25 02:03:27;;;;;;;2.30;2.30;;;20.40;63.50;;;;;;5047004;28;43452;-75
2022/09/25 02:05:56;;;;;;;2.60;2.50;;;20.40;63.90;;;;;;5051681;28;43826;-76
2022/09/25 02:08:26;;;;;;;2.40;2.30;;;20.40;63.70;;;;;;5059411;28;43428;-75
2022/09/25 02:10:55;;;;;;;2.20;2.20;;;20.40;63.70;;;;;;5045652;28;45271;-75
2022/09/25 02:13:24;;;;;;;2.37;2.37;;;20.40;63.70;;;;;;5035233;28;44671;-74
2022/09/25 02:15:53;;;;;;;2.23;2.23;;;20.30;63.70;;;;;;5050165;28;43869;-73
2022/09/25 02:21:13;;;;;;;2.43;2.37;;;20.40;64.00;;;;;;5040520;28;45512;-76
2022/09/25 02:23:47;;;;;;;2.20;2.20;;;20.50;63.80;;;;;;5057616;28;43592;-74
2022/09/25 02:26:18;;;;;;;2.30;2.30;;;20.60;63.40;;;;;;5044479;28;43510;-76
2022/09/25 02:28:45;;;;;;;2.37;2.37;;;20.70;63.00;;;;;;5050886;28;44407;-78
2022/09/25 02:31:13;;;;;;;2.57;2.50;;;20.70;62.70;;;;;;5041669;28;45783;-75
2022/09/25 02:33:43;;;;;;;2.53;2.53;;;20.70;62.70;;;;;;5059837;28;43435;-74
2022/09/25 02:36:17;;;;;;;2.20;2.20;;;20.60;62.70;;;;;;5042977;28;43456;-76
2022/09/25 02:38:45;;;;;;;2.50;2.50;;;20.50;63.00;;;;;;5052641;28;43619;-77
2022/09/25 02:41:17;;;;;;;2.63;2.57;;;20.50;63.40;;;;;;5063198;28;43984;-75
2022/09/25 02:43:46;;;;;;;2.43;2.43;;;20.50;63.50;;;;;;5032866;28;44578;-74
2022/09/25 02:46:17;;;;;;;2.30;2.30;;;20.50;63.50;;;;;;5051091;28;43348;-75
2022/09/25 02:48:49;;;;;;;2.33;2.33;;;20.40;63.40;;;;;;5053300;28;43460;-75
2022/09/25 02:51:20;;;;;;;2.73;2.67;;;20.40;63.60;;;;;;5057178;28;43976;-76
2022/09/25 02:53:50;;;;;;;2.40;2.40;;;20.40;63.90;;;;;;5053522;28;44000;-73
2022/09/25 02:56:23;;;;;;;2.70;2.70;;;20.30;63.90;;;;;;5053932;28;43449;-75
2022/09/25 02:58:52;;;;;;;2.50;2.50;;;20.50;63.80;;;;;;5058716;28;43823;-72
2022/09/25 03:01:21;;;;;;;2.50;2.50;;;20.50;63.30;;;;;;5058415;28;43611;-75
2022/09/25 03:03:52;;;;;;;2.70;2.70;;;20.60;63.20;;;;;;5052833;28;43448;-75
2022/09/25 03:06:20;;;;;;;2.63;2.53;;;20.60;63.20;;;;;;5057312;28;43527;-74
2022/09/25 03:08:51;;;;;;;2.60;2.60;;;20.50;63.40;;;;;;5054640;28;43434;-72
2022/09/25 03:11:22;;;;;;;2.73;2.70;;;20.50;63.50;;;;;;5057863;28;44074;-75
2022/09/25 03:13:55;;;;;;;2.60;2.60;;;20.50;63.30;;;;;;5052113;28;43444;-73
2022/09/25 03:16:29;;;;;;;2.57;2.57;;;20.50;63.40;;;;;;5056689;28;43708;-75
2022/09/25 03:18:58;;;;;;;2.80;2.70;;;20.40;63.30;;;;;;5058494;28;43474;-75
2022/09/25 03:21:26;;;;;;;2.77;2.77;;;20.40;63.70;;;;;;5053167;28;43602;-74
2022/09/25 03:23:55;;;;;;;2.73;2.63;;;20.40;63.90;;;;;;5052236;28;43436;-76
2022/09/25 03:26:24;;;;;;;2.57;2.57;;;20.40;63.70;;;;;;5049790;28;43368;-77
2022/09/25 03:28:52;;;;;;;2.90;2.80;;;20.40;63.70;;;;;;5048661;28;43586;-73
2022/09/25 03:31:20;;;;;;;2.67;2.67;;;20.40;63.70;;;;;;5053110;28;43850;-73
2022/09/25 03:33:48;;;;;;;2.90;2.90;;;20.30;63.70;;;;;;5051244;28;43415;-73
2022/09/25 03:36:19;;;;;;;2.83;2.77;;;20.30;64.00;;;;;;5062091;28;43485;-74
2022/09/25 03:38:49;;;;;;;2.80;2.80;;;20.30;64.00;;;;;;5045791;28;43914;-73
2022/09/25 03:41:20;;;;;;;2.80;2.80;;;20.30;63.80;;;;;;5050721;28;43750;-76
2022/09/25 03:43:50;;;;;;;2.80;2.70;;;20.30;63.70;;;;;;5061247;28;44488;-73
2022/09/25 03:46:19;;;;;;;2.97;2.97;;;20.30;63.80;;;;;;5049709;28;43455;-76
2022/09/25 03:48:47;;;;;;;2.67;2.67;;;20.30;63.90;;;;;;5051986;28;43444;-74
2022/09/25 03:51:17;;;;;;;2.67;2.67;;;20.30;64.20;;;;;;5051254;28;43975;-73
2022/09/25 03:53:46;;;;;;;3.30;3.20;;;20.40;64.70;;;;;;5057117;28;43510;-75
2022/09/25 03:56:15;;;;;;;3.10;3.00;;;20.50;63.60;;;;;;5054534;28;43360;-76
2022/09/25 03:58:43;;;;;;;2.77;2.67;;;20.60;63.10;;;;;;5050036;28;44088;-77
2022/09/25 04:01:11;;;;;;;2.70;2.70;;;20.70;62.80;;;;;;5051195;28;43623;-75
2022/09/25 04:03:39;;;;;;;3.20;3.10;;;20.70;62.70;;;;;;5060227;28;43339;-72
2022/09/25 04:06:08;;;;;;;3.37;3.27;;;20.70;62.50;;;;;;5053434;28;44060;-76
2022/09/25 04:08:37;;;;;;;2.90;2.90;;;20.70;62.80;;;;;;5051010;28;43452;-75
2022/09/25 04:11:06;;;;;;;3.40;3.30;;;20.60;63.70;;;;;;5051334;28;43854;-73
2022/09/25 04:13:35;;;;;;;2.87;2.87;;;20.50;63.30;;;;;;5055676;28;43516;-74
2022/09/25 04:16:03;;;;;;;3.27;3.17;;;20.50;63.40;;;;;;5059707;28;43409;-75
2022/09/25 04:18:32;;;;;;;2.70;2.70;;;20.50;63.40;;;;;;5051506;28;43476;-76
2022/09/25 04:21:00;;;;;;;2.77;2.77;;;20.50;63.50;;;;;;5054944;28;43614;-76
2022/09/25 04:23:27;;;;;;;2.77;2.77;;;20.40;63.50;;;;;;5056351;28;43354;-74
2022/09/25 04:25:57;;;;;;;3.47;3.37;;;20.40;63.90;;;;;;5053255;28;43422;-74
2022/09/25 04:28:25;;;;;;;3.10;3.00;;;20.40;63.80;;;;;;5059538;28;44021;-75
2022/09/25 04:30:53;;;;;;;2.70;2.70;;;20.40;63.70;;;;;;5053969;28;45732;-74
2022/09/25 04:36:06;;;;;;;2.60;2.60;;;20.40;63.70;;;;;;5047886;28;43807;-76
2022/09/25 04:38:34;;;;;;;3.40;3.30;;;20.30;63.90;;;;;;5046285;28;43504;-74
2022/09/25 04:41:04;;;;;;;2.83;2.83;;;20.40;64.00;;;;;;5049433;28;43907;-76
2022/09/25 04:43:32;;;;;;;2.90;2.90;;;20.40;63.70;;;;;;5052745;28;43520;-75
2022/09/25 04:46:01;;;;;;;3.33;3.23;;;20.50;63.30;;;;;;5051431;28;43503;-75
2022/09/25 04:48:29;;;;;;;3.20;3.10;;;20.60;62.90;;;;;;5053341;28;43357;-76
2022/09/25 04:50:57;;;;;;;2.80;2.80;;;20.70;62.80;;;;;;5051271;28;43667;-74
2022/09/25 04:53:26;;;;;;;3.10;3.00;;;20.70;62.70;;;;;;5056636;28;44292;-76
2022/09/25 04:55:54;;;;;;;3.20;3.10;;;20.60;62.80;;;;;;5051350;28;43921;-74
2022/09/25 04:58:23;;;;;;;3.00;2.90;;;20.60;63.10;;;;;;5059854;28;43484;-76
2022/09/25 05:00:51;;;;;;;2.93;2.93;;;20.50;63.30;;;;;;5050813;28;45339;-75
2022/09/25 05:03:19;;;;;;;3.20;3.10;;;20.40;63.50;;;;;;5049792;28;43792;-76
2022/09/25 05:05:47;;;;;;;3.40;3.30;;;20.50;63.50;;;;;;5055135;28;43893;-74
2022/09/25 05:08:15;;;;;;;3.07;3.07;;;20.40;63.50;;;;;;5054385;28;43519;-73
2022/09/25 05:10:43;;;;;;;3.10;3.10;;;20.40;63.50;;;;;;5048474;28;43608;-73
2022/09/25 05:13:11;;;;;;;3.20;3.10;;;20.40;63.70;;;;;;5030408;28;44412;-74
2022/09/25 05:15:40;;;;;;;2.80;2.80;;;20.40;64.00;;;;;;5049711;28;43848;-72
2022/09/25 05:18:16;;;;;;;3.10;3.10;;;20.40;63.80;;;;;;5049064;28;43708;-75
2022/09/25 05:20:45;;;;;;;3.33;3.23;;;20.50;63.50;;;;;;5051277;28;43597;-75
2022/09/25 05:23:13;;;;;;;2.97;2.87;;;20.60;63.20;;;;;;5046039;28;43477;-76
2022/09/25 05:25:41;;;;;;;3.60;3.50;;;20.60;63.10;;;;;;5052563;28;43412;-76
2022/09/25 05:28:09;;;;;;;3.20;3.10;;;20.50;63.30;;;;;;5050337;28;43372;-71
2022/09/25 05:30:37;;;;;;;3.80;3.67;;;20.50;63.30;;;;;;5062944;28;45277;-75
2022/09/25 05:33:06;;;;;;;3.30;3.20;;;20.50;63.20;;;;;;5029946;28;43451;-74
2022/09/25 05:35:35;;;;;;;2.83;2.83;;;20.50;63.30;;;;;;5029414;28;43451;-76
2022/09/25 05:38:05;;;;;;;3.40;3.30;;;20.40;63.30;;;;;;5052829;28;43408;-74
2022/09/25 05:40:33;;;;;;;3.40;3.30;;;20.40;63.60;;;;;;5054925;28;43987;-73
2022/09/25 05:43:02;;;;;;;3.33;3.23;;;20.40;63.80;;;;;;5054054;28;43619;-74
2022/09/25 05:45:30;;;;;;;3.47;3.37;;;20.40;63.70;;;;;;5048474;28;43520;-74
2022/09/25 05:48:01;;;;;;;3.00;2.90;;;20.40;63.70;;;;;;5058780;28;43447;-76
2022/09/25 05:50:32;;;;;;;3.03;3.00;;;20.30;63.70;;;;;;5062686;28;45738;-75
2022/09/25 05:53:00;;;;;;;3.33;3.23;;;20.30;63.80;;;;;;5034409;28;44638;-76
2022/09/25 05:55:28;;;;;;;3.47;3.37;;;20.30;64.10;;;;;;5070997;28;43438;-76
2022/09/25 05:58:00;;;;;;;3.20;3.10;;;20.40;63.90;;;;;;5058105;28;43427;-76
2022/09/25 06:00:28;;;;;;;3.40;3.30;;;20.50;63.60;;;;;;5057218;28;43937;-75
2022/09/25 06:02:55;;;;;;;3.23;3.13;;;20.60;63.10;;;;;;5061598;28;43493;-74
2022/09/25 06:05:23;;;;;;;2.90;2.80;;;20.70;62.80;;;;;;5040377;28;43465;-75
2022/09/25 06:07:56;;;;;;;3.40;3.30;;;20.70;62.60;;;;;;5058771;28;43463;-73
2022/09/25 06:10:25;;;;;;;3.13;3.03;;;20.70;62.70;;;;;;5061805;28;43670;-76
2022/09/25 06:12:57;;;;;;;3.00;3.00;;;20.60;62.80;;;;;;5054024;28;43438;-75
2022/09/25 06:15:26;;;;;;;3.30;3.20;;;20.50;62.90;;;;;;5052741;28;43439;-73
2022/09/25 06:17:54;;;;;;;3.50;3.40;;;20.40;63.40;;;;;;5057670;28;43898;-73
2022/09/25 06:20:23;;;;;;;3.07;3.07;;;20.50;63.60;;;;;;5064633;28;45980;-73
2022/09/25 06:22:52;;;;;;;3.50;3.40;;;20.40;63.40;;;;;;5065788;28;43977;-74
2022/09/25 06:25:22;;;;;;;3.20;3.10;;;20.40;63.40;;;;;;5065340;28;43408;-76
2022/09/25 06:27:52;;;;;;;3.20;3.10;;;20.30;63.50;;;;;;5046951;28;43493;-75
2022/09/25 06:30:20;;;;;;;3.60;3.50;;;20.30;63.90;;;;;;5057852;28;43931;-74
2022/09/25 06:32:49;;;;;;;3.50;3.30;;;20.30;63.90;;;;;;5054478;28;43578;-72
2022/09/25 06:35:17;;;;;;;3.10;3.00;;;20.30;63.80;;;;;;5068500;28;43415;-74
2022/09/25 06:37:45;;;;;;;2.93;2.93;;;20.30;63.70;;;;;;5055359;28;43495;-74
2022/09/25 06:40:13;;;;;;;3.10;3.00;;;20.30;63.80;;;;;;5063491;28;45828;-76
2022/09/25 06:42:44;;;;;;;3.40;3.30;;;20.30;63.90;;;;;;5056794;28;43456;-72
2022/09/25 06:45:12;;;;;;;3.57;3.47;;;20.30;64.30;;;;;;5055240;28;43470;-75
2022/09/25 06:47:40;;;;;;;3.00;2.90;;;20.30;64.00;;;;;;5057107;28;43396;-74
2022/09/25 06:50:09;;;;;;;2.90;2.90;;;20.40;63.70;;;;;;5056435;28;43584;-75
2022/09/25 06:52:42;;;;;;;3.40;3.30;;;20.60;63.40;;;;;;5062278;28;43570;-74
2022/09/25 06:55:10;;;;;;;4.70;3.40;;;20.60;62.90;;;;;;5069293;28;43473;-75
2022/09/25 06:57:38;;;;;;;3.50;3.40;;;20.70;62.80;;;;;;5067816;28;43492;-73
2022/09/25 07:00:08;;;;;;;3.20;3.00;;;20.70;62.70;;;;;;5042928;28;45918;-75
2022/09/25 07:05:22;;;;;;;3.27;3.17;;;20.50;63.00;;;;;;5062804;28;43764;-72
2022/09/25 07:07:50;;;;;;;3.10;3.10;;;20.40;63.30;;;;;;5051031;28;43423;-73
2022/09/25 07:10:18;;;;;;;3.20;3.10;;;20.40;63.60;;;;;;5060054;28;43861;-75
2022/09/25 07:12:46;;;;;;;3.10;3.00;;;20.40;63.40;;;;;;5053578;28;45145;-77
2022/09/25 07:15:16;;;;;;;3.00;3.00;;;20.40;63.60;;;;;;5053518;28;43475;-76
2022/09/25 07:17:44;;;;;;;3.67;3.57;;;20.30;63.50;;;;;;5062038;28;43439;-75
2022/09/25 07:20:14;;;;;;;4.00;3.80;;;20.30;63.70;;;;;;5031335;28;45722;-76
2022/09/25 07:22:42;;;;;;;4.30;4.10;;;20.30;63.90;;;;;;5051286;28;43959;-76
2022/09/25 07:25:10;;;;;;;4.30;4.10;;;20.30;63.80;;;;;;5048584;28;43430;-75
2022/09/25 07:27:38;;;;;;;3.40;3.30;;;20.30;63.70;;;;;;5053667;28;43461;-76
2022/09/25 07:30:08;;;;;;;4.50;4.30;;;20.30;63.70;;;;;;5052611;28;43631;-77
2022/09/25 07:32:37;;;;;;;6.83;6.33;;;20.30;64.60;;;;;;5053159;28;43416;-73
2022/09/25 07:35:05;;;;;;;6.67;6.13;;;20.20;64.10;;;;;;5058310;28;43493;-74
2022/09/25 07:37:33;;;;;;;6.70;6.20;;;20.30;64.00;;;;;;5049248;28;43489;-76
2022/09/25 07:40:01;;;;;;;5.30;5.10;;;20.30;63.80;;;;;;5057496;28;44596;-75
2022/09/25 07:42:30;;;;;;;6.00;5.60;;;20.30;63.80;;;;;;5048804;28;43495;-73
2022/09/25 07:44:58;;;;;;;9.60;8.20;;;20.30;63.90;;;;;;5052410;28;44122;-73
2022/09/25 07:47:26;;;;;;;10.10;9.07;;;20.30;64.20;;;;;;5064445;28;44000;-75
2022/09/25 07:49:55;;;;;;;9.20;8.30;;;20.30;64.20;;;;;;5047536;28;43968;-75
2022/09/25 07:52:23;;;;;;;10.97;9.57;;;20.40;64.00;;;;;;5053585;28;44167;-72
2022/09/25 07:54:51;;;;;;;10.30;8.80;;;20.50;63.60;;;;;;5053262;28;43422;-74
2022/09/25 07:57:19;;;;;;;9.50;8.53;;;20.60;63.10;;;;;;5059471;28;43504;-73
2022/09/25 07:59:47;;;;;;;9.80;8.53;;;20.70;62.80;;;;;;5060590;28;43600;-74
2022/09/25 08:02:15;;;;;;;10.00;8.33;;;20.70;62.70;;;;;;5050287;28;43558;-75
2022/09/25 08:04:43;;;;;;;9.03;8.13;;;20.60;62.70;;;;;;5053490;28;43431;-74
2022/09/25 08:07:12;;;;;;;8.67;7.77;;;20.60;62.90;;;;;;5060193;28;43751;-74
2022/09/25 08:09:40;;;;;;;9.20;8.40;;;20.50;63.10;;;;;;5052753;28;43838;-75
2022/09/25 08:12:11;;;;;;;11.13;8.73;;;20.50;63.70;;;;;;5058288;28;44054;-74
2022/09/25 08:14:40;;;;;;;11.47;9.33;;;20.40;63.60;;;;;;5046860;28;43460;-76
2022/09/25 08:17:08;;;;;;;9.03;8.23;;;20.40;63.50;;;;;;5048473;28;43752;-74
2022/09/25 08:19:36;;;;;;;8.27;7.47;;;20.40;63.60;;;;;;5048518;28;44145;-74
2022/09/25 08:22:04;;;;;;;10.87;9.03;;;20.30;63.70;;;;;;5057661;28;44961;-72
2022/09/25 08:24:33;;;;;;;12.37;9.67;;;20.30;64.10;;;;;;5050243;28;44106;-73
2022/09/25 08:27:01;;;;;;;12.87;9.40;;;20.30;64.10;;;;;;5059500;28;43408;-74
2022/09/25 08:29:29;;;;;;;15.13;10.63;;;20.40;63.90;;;;;;5063838;28;45671;-74
2022/09/25 08:31:57;;;;;;;16.13;10.00;;;20.50;63.80;;;;;;5029987;28;45051;-75
2022/09/25 08:34:25;;;;;;;11.47;8.87;;;20.60;63.80;;;;;;5055072;28;43530;-75
2022/09/25 08:37:08;;;;;;;11.10;8.17;;;20.50;63.70;;;;;;5042508;28;43719;-72
2022/09/25 08:39:37;;;;;;;10.30;8.70;;;20.50;64.10;;;;;;5050795;28;43580;-74
2022/09/25 08:42:05;;;;;;;9.50;8.60;;;20.50;64.20;;;;;;5049656;28;43391;-73
2022/09/25 08:44:36;;;;;;;10.43;8.33;;;20.50;64.10;;;;;;5035180;28;43502;-74
2022/09/25 08:49:53;;;;;;;10.60;7.77;;;20.40;64.00;;;;;;5056461;28;43604;-73
2022/09/25 08:52:21;;;;;;;11.80;8.20;;;20.40;64.40;;;;;;5058280;28;44595;-74
2022/09/25 08:54:50;;;;;;;13.23;7.87;;;20.40;64.80;;;;;;5047303;28;43372;-72
2022/09/25 08:57:26;;;;;;;10.93;7.07;;;20.40;64.70;;;;;;5047947;28;43490;-72
2022/09/25 08:59:55;;;;;;;9.30;7.37;;;20.40;64.60;;;;;;5049867;28;43883;-75
2022/09/25 09:02:38;;;;;;;8.93;7.63;;;20.30;64.40;;;;;;5052773;28;44057;-73
2022/09/25 09:05:09;;;;;;;8.60;7.20;;;20.30;64.40;;;;;;5058121;28;43739;-77
2022/09/25 09:07:39;;;;;;;8.00;7.13;;;20.30;65.30;;;;;;5052204;28;43458;-75
2022/09/25 09:10:15;;;;;;;8.40;7.07;;;20.40;65.00;;;;;;5053633;28;44794;-74
2022/09/25 09:12:44;;;;;;;7.53;6.83;;;20.50;64.50;;;;;;5053151;28;43425;-76
2022/09/25 09:15:18;;;;;;;7.67;6.97;;;20.70;64.30;;;;;;5063935;28;43443;-77
2022/09/25 09:17:46;;;;;;;7.07;6.47;;;20.70;64.00;;;;;;5054374;28;43427;-74
2022/09/25 09:20:17;;;;;;;6.80;6.30;;;20.60;63.90;;;;;;5033331;28;45645;-73
2022/09/25 09:22:49;;;;;;;6.67;6.00;;;20.60;64.30;;;;;;5041019;28;43425;-72
2022/09/25 09:25:25;;;;;;;7.10;6.50;;;20.60;64.30;;;;;;5041531;28;43423;-75
2022/09/25 09:28:02;;;;;;;8.50;6.17;;;20.60;64.30;;;;;;5048938;28;43450;-77
2022/09/25 09:30:32;;;;;;;6.27;5.80;;;20.50;64.20;;;;;;5057688;28;44636;-74
2022/09/25 09:33:19;;;;;;;6.70;6.00;;;20.50;64.40;;;;;;5048578;28;43539;-77
2022/09/25 09:35:52;;;;;;;6.47;5.80;;;20.50;65.10;;;;;;5055611;28;43924;-77
2022/09/25 09:38:27;;;;;;;6.23;5.73;;;20.50;65.00;;;;;;5059381;28;43861;-74
2022/09/25 09:41:07;;;;;;;5.97;5.43;;;20.50;64.80;;;;;;5059995;28;46235;-76
2022/09/25 09:43:49;;;;;;;6.23;5.73;;;20.40;64.60;;;;;;5055713;28;43439;-74
2022/09/25 09:46:27;;;;;;;6.33;5.77;;;20.40;64.70;;;;;;5052169;28;43809;-75
2022/09/25 09:49:02;;;;;;;6.03;5.53;;;20.40;65.50;;;;;;5053270;28;43401;-75
2022/09/25 09:51:32;;;;;;;5.30;5.00;;;20.40;65.30;;;;;;5052238;28;43888;-75
2022/09/25 09:54:02;;;;;;;6.23;5.67;;;20.60;64.90;;;;;;5055021;28;43436;-74
2022/09/25 09:56:31;;;;;;;6.10;5.50;;;20.70;64.30;;;;;;5054492;28;43444;-74
2022/09/25 09:59:01;;;;;;;5.80;5.30;;;20.80;64.00;;;;;;5052292;28;43496;-74
2022/09/25 10:01:32;;;;;;;6.70;5.00;;;20.80;63.90;;;;;;5051395;28;43605;-76
2022/09/25 10:04:11;;;;;;;5.83;5.33;;;20.80;63.80;;;;;;5054214;28;43828;-76
2022/09/25 10:06:42;;;;;;;4.80;4.60;;;20.70;63.90;;;;;;5033820;28;43489;-73
2022/09/25 10:09:10;;;;;;;5.10;4.70;;;20.60;64.10;;;;;;5055734;28;43504;-74
2022/09/25 10:11:40;;;;;;;5.63;5.23;;;20.50;64.80;;;;;;5054613;28;44053;-75
2022/09/25 10:14:11;;;;;;;5.17;4.80;;;20.50;65.00;;;;;;5060667;28;44973;-75
2022/09/25 10:16:39;;;;;;;4.97;4.70;;;20.50;64.80;;;;;;5055681;28;43511;-75
2022/09/25 10:19:10;;;;;;;5.33;4.97;;;20.50;64.80;;;;;;5051769;28;43453;-76
2022/09/25 10:21:39;;;;;;;4.97;4.67;;;20.40;64.70;;;;;;5051416;28;44004;-74
2022/09/25 10:24:07;;;;;;;5.20;4.80;;;20.40;65.30;;;;;;5053454;28;43982;-73
2022/09/25 10:26:35;;;;;;;5.27;4.87;;;20.40;65.40;;;;;;5034832;28;43448;-73
2022/09/25 10:29:23;;;;;;;8.50;6.20;;;20.40;65.20;;;;;;5052936;28;43551;-76
2022/09/25 10:31:57;;;;;;;7.57;4.97;;;20.40;64.80;;;;;;5055220;28;43612;-73
2022/09/25 10:34:27;;;;;;;9.47;5.30;;;20.40;64.80;;;;;;5049927;28;44795;-74
2022/09/25 10:36:55;;;;;;;6.83;6.03;;;20.30;65.00;;;;;;5050797;28;44041;-74
2022/09/25 10:39:28;;;;;;;5.73;5.23;;;20.40;65.40;;;;;;5056559;28;43436;-73
2022/09/25 10:42:32;;;;;;;7.90;5.40;;;20.40;65.10;;;;;;5055733;28;43875;-73
2022/09/25 10:45:20;;;;;;;5.23;4.83;;;20.60;64.60;;;;;;5054805;28;43470;-75
2022/09/25 10:50:35;;;;;;;5.60;5.07;;;20.90;64.00;;;;;;5060011;28;43903;-74
2022/09/25 10:53:04;;;;;;;4.83;4.43;;;20.90;63.90;;;;;;5052230;28;43899;-75
2022/09/25 10:55:33;;;;;;;4.87;4.47;;;20.80;64.00;;;;;;5053998;28;44244;-75
2022/09/25 10:58:08;;;;;;;6.47;4.63;;;20.70;64.10;;;;;;5044142;28;43359;-73
2022/09/25 11:00:43;;;;;;;4.80;4.40;;;20.60;64.80;;;;;;5059903;28;43459;-73
2022/09/25 11:03:20;;;;;;;4.60;4.30;;;20.60;64.80;;;;;;5050127;28;43815;-74
2022/09/25 11:05:51;;;;;;;4.80;4.50;;;20.50;64.60;;;;;;5051918;28;43467;-72
2022/09/25 11:08:18;;;;;;;4.67;4.30;;;20.50;64.70;;;;;;5057795;28;43419;-76
2022/09/25 11:10:49;;;;;;;4.40;4.00;;;20.50;64.90;;;;;;5067542;28;43554;-75
2022/09/25 11:13:21;;;;;;;5.43;4.13;;;20.50;65.50;;;;;;5050708;28;43613;-76
2022/09/25 11:15:52;;;;;;;5.10;4.60;;;20.50;65.20;;;;;;5055123;28;43481;-74
2022/09/25 11:18:45;;;;;;;4.37;4.07;;;20.50;65.10;;;;;;5050530;28;44053;-73
2022/09/25 11:21:21;;;;;;;4.10;3.83;;;20.50;65.10;;;;;;5044489;28;43410;-74
2022/09/25 11:24:01;;;;;;;4.10;3.90;;;20.50;65.40;;;;;;5035062;28;45625;-72
2022/09/25 11:26:31;;;;;;;3.80;3.60;;;20.50;65.60;;;;;;5033549;28;44342;-73
2022/09/25 11:29:03;;;;;;;4.40;4.00;;;20.60;65.30;;;;;;5043972;28;43491;-75
2022/09/25 11:31:35;;;;;;;4.20;3.90;;;20.70;64.80;;;;;;5055133;28;44158;-76
2022/09/25 11:34:10;;;;;;;4.27;3.90;;;20.90;64.30;;;;;;5053368;28;43623;-72
2022/09/25 11:36:41;;;;;;;4.27;3.90;;;20.90;64.00;;;;;;5037390;28;44745;-73
2022/09/25 11:41:59;;;;;;;3.70;3.50;;;20.90;64.00;;;;;;5038401;28;43519;-77
2022/09/25 11:44:30;;;;;;;3.73;3.47;;;20.80;64.20;;;;;;5059700;28;45575;-73
2022/09/25 11:47:04;;;;;;;3.60;3.40;;;20.70;64.50;;;;;;5054805;28;43494;-76
2022/09/25 11:49:33;;;;;;;3.80;3.50;;;20.60;65.20;;;;;;5055396;28;43514;-76
2022/09/25 11:52:31;;;;;;;3.57;3.37;;;20.60;65.10;;;;;;5059739;28;43898;-77
2022/09/25 11:55:33;;;;;;;3.73;3.43;;;20.60;65.10;;;;;;5055511;28;44456;-76
2022/09/25 11:58:08;;;;;;;3.20;3.10;;;20.50;65.10;;;;;;5048916;28;44161;-76
2022/09/25 12:00:40;;;;;;;3.53;3.37;;;20.50;65.50;;;;;;5055428;28;43499;-75
2022/09/25 12:03:24;;;;;;;3.20;3.10;;;20.50;65.80;;;;;;5054344;28;43952;-77
2022/09/25 12:06:01;;;;;;;3.40;3.20;;;20.50;65.70;;;;;;5057237;28;45062;-75
2022/09/25 12:08:38;;;;;;;3.27;3.17;;;20.40;65.40;;;;;;5055787;28;43450;-76
2022/09/25 12:11:12;;;;;;;3.40;3.30;;;20.50;65.50;;;;;;5049212;28;43847;-77
2022/09/25 12:13:43;;;;;;;3.70;3.50;;;20.40;65.70;;;;;;5055358;28;43420;-76
2022/09/25 12:16:17;;;;;;;3.30;3.20;;;20.40;66.20;;;;;;5052673;28;45758;-74
2022/09/25 12:19:05;;;;;;;3.47;3.27;;;20.50;65.80;;;;;;5056234;28;45000;-75
2022/09/25 12:21:35;;;;;;;3.60;3.40;;;20.70;65.30;;;;;;5051561;28;43570;-76
2022/09/25 12:24:09;;;;;;;2.83;2.73;;;20.90;64.80;;;;;;5054662;28;44019;-76
2022/09/25 12:26:40;;;;;;;3.33;3.17;;;21.00;64.30;;;;;;5053606;28;43669;-74
2022/09/25 12:29:15;;;;;;;2.83;2.73;;;21.00;64.30;;;;;;5052751;28;43809;-74
2022/09/25 12:31:49;;;;;;;2.80;2.70;;;21.00;64.30;;;;;;5056664;28;43994;-76
2022/09/25 12:34:25;;;;;;;3.27;3.07;;;20.80;64.50;;;;;;5054469;28;43445;-76
2022/09/25 12:36:56;;;;;;;3.13;3.03;;;20.70;64.80;;;;;;5046994;28;43775;-73
2022/09/25 12:39:30;;;;;;;3.00;2.90;;;20.70;65.20;;;;;;5056389;28;43503;-76
2022/09/25 12:42:06;;;;;;;2.83;2.73;;;20.70;65.10;;;;;;5055546;28;44081;-74
2022/09/25 12:44:40;;;;;;;2.87;2.77;;;20.60;65.10;;;;;;5049941;28;43962;-73
2022/09/25 12:47:10;;;;;;;3.00;2.80;;;20.60;65.30;;;;;;5051596;28;43896;-73
2022/09/25 12:49:40;;;;;;;2.90;2.80;;;20.50;65.80;;;;;;5050599;28;43471;-76
2022/09/25 12:52:11;;;;;;;3.10;2.97;;;20.60;66.00;;;;;;5031419;28;44111;-76
2022/09/25 12:54:44;;;;;;;3.03;2.83;;;20.60;65.80;;;;;;5053812;28;43970;-73
2022/09/25 12:57:13;;;;;;;2.77;2.60;;;20.50;65.60;;;;;;5054204;28;43616;-77
2022/09/25 12:59:43;;;;;;;2.60;2.50;;;20.50;65.60;;;;;;5057358;28;43393;-72
2022/09/25 13:02:16;;;;;;;2.53;2.43;;;20.50;66.10;;;;;;5052629;28;44413;-74
2022/09/25 13:04:54;;;;;;;2.53;2.43;;;20.50;66.10;;;;;;5056427;28;43365;-74
2022/09/25 13:07:24;;;;;;;2.67;2.57;;;20.60;65.50;;;;;;5058324;28;44008;-75
2022/09/25 13:09:52;;;;;;;2.57;2.57;;;20.80;65.10;;;;;;5051976;28;43652;-75
2022/09/25 13:12:26;;;;;;;2.67;2.57;;;21.00;64.60;;;;;;5054388;28;43989;-76
2022/09/25 13:14:56;;;;;;;2.80;2.70;;;21.10;64.40;;;;;;5055983;28;43452;-73
2022/09/25 13:17:23;;;;;;;2.77;2.60;;;21.00;64.20;;;;;;5058909;28;43878;-73
2022/09/25 13:19:53;;;;;;;2.63;2.57;;;20.90;64.30;;;;;;5050716;28;43435;-75